Pagrindinis puslapis
METAR-TAF:

METAR-TAF

Oro uostai :

Manta, Ekvadoras

platuma: 00-57S, ilguma: 080-41W, Aukštis: 13 m

Dabartinis oras

Ataskaita buvo paskelbta 21 minutes, ne 03:00 UTC
Vėjas 8 kt iš Pietų
Temperatūra 23°C
Drėgmė 89%
Slėgis 1013 hPa
Matomumas 10 km arba daugiau
Mažai debesys ne aukštis 2300 ft

METAR: SEMT 170300Z 18008KT 9999 FEW023 23/21 Q1013 RMK A2992

Laikas: 22:21 (03:21 UTC)

Prognozė

Ataskaita buvo paskelbta 4 valandos ir 51 minutes, ne 22:30 UTC
Prognozė galioja nuo 17 metu 00 UTC su 17 metu 24 UTC
Vėjas 5 kt iš Pietvakarių
Matomumas 10 km arba daugiau
Su prošvaistėmis ne aukštis 2600 ft
Tapsmas
nuo 16 metu 06 UTC su 17 metu 08 UTC
Apsiniaukę ne aukštis 2300 ft
Tapsmas
nuo 17 metu 16 UTC su 17 metu 18 UTC
Išsisklaidę debesys ne aukštis 2600 ft
Išsisklaidę debesys ne aukštis 10000 ft

TAF: SEMT 162230Z 1700/1724 22005KT 9999 BKN026 BECMG 1606/1708 OVC023 BECMG 1716/1718 SCT026 SCT100 TX29/1720Z TN22/1710Z

Orai ataskaitas ir orų prognozės (METAR, TAF).

turimą stotys yra geltonos ir raudonos taškus žemėlapyje.

Perkelti pele per norėdami pamatyti stoties vardą.

Tada spustelėkite, norėdami matyti oro stebėjimo ir prognozės.

Norėdami pakeisti žemėlapį: spustelėkite ant žalios mygtukų su juodo kryžiaus žemyn,; žalią mygtuką su brūkšneliu, jei norite nutolinti; arba žalių rodyklių gretimoms žemėlapius.


METAR-TAF: